sensor_id;sensor_type;location;lat;lon;timestamp;P1;durP1;ratioP1;P2;durP2;ratioP2
43803;SDS011;29430;52.924;-2.388;2022-10-28T00:03:56;11.73;;;2.85;;
43803;SDS011;29430;52.924;-2.388;2022-10-28T00:08:50;16.25;;;3.33;;
43803;SDS011;29430;52.924;-2.388;2022-10-28T00:13:42;10.57;;;3.03;;
43803;SDS011;29430;52.924;-2.388;2022-10-28T00:18:35;10.50;;;3.13;;
43803;SDS011;29430;52.924;-2.388;2022-10-28T00:23:27;11.65;;;3.60;;
43803;SDS011;29430;52.924;-2.388;2022-10-28T00:28:18;14.07;;;3.25;;
43803;SDS011;29430;52.924;-2.388;2022-10-28T00:33:10;13.20;;;2.92;;
43803;SDS011;29430;52.924;-2.388;2022-10-28T00:38:02;11.88;;;3.20;;
43803;SDS011;29430;52.924;-2.388;2022-10-28T00:42:53;11.00;;;3.00;;
43803;SDS011;29430;52.924;-2.388;2022-10-28T00:47:48;9.77;;;4.03;;
43803;SDS011;29430;52.924;-2.388;2022-10-28T00:52:44;9.27;;;2.97;;
43803;SDS011;29430;52.924;-2.388;2022-10-28T00:57:39;13.52;;;3.08;;
43803;SDS011;29430;52.924;-2.388;2022-10-28T01:02:33;8.95;;;2.88;;
43803;SDS011;29430;52.924;-2.388;2022-10-28T01:07:32;13.85;;;3.58;;
43803;SDS011;29430;52.924;-2.388;2022-10-28T01:29:07;12.05;;;2.88;;
43803;SDS011;29430;52.924;-2.388;2022-10-28T01:39:53;12.73;;;2.30;;
43803;SDS011;29430;52.924;-2.388;2022-10-28T01:55:13;12.32;;;2.80;;
43803;SDS011;29430;52.924;-2.388;2022-10-28T02:00:10;9.65;;;1.42;;
43803;SDS011;29430;52.924;-2.388;2022-10-28T02:05:04;14.15;;;1.55;;
43803;SDS011;29430;52.924;-2.388;2022-10-28T02:10:17;10.32;;;1.98;;
43803;SDS011;29430;52.924;-2.388;2022-10-28T02:20:27;14.13;;;1.95;;
43803;SDS011;29430;52.924;-2.388;2022-10-28T02:25:32;11.50;;;2.22;;
43803;SDS011;29430;52.924;-2.388;2022-10-28T02:30:33;8.68;;;1.50;;
43803;SDS011;29430;52.924;-2.388;2022-10-28T02:35:36;8.48;;;1.73;;
43803;SDS011;29430;52.924;-2.388;2022-10-28T02:40:33;6.75;;;1.48;;
43803;SDS011;29430;52.924;-2.388;2022-10-28T02:45:33;8.27;;;2.08;;
43803;SDS011;29430;52.924;-2.388;2022-10-28T02:50:35;6.72;;;1.58;;
43803;SDS011;29430;52.924;-2.388;2022-10-28T02:55:35;7.47;;;1.50;;
43803;SDS011;29430;52.924;-2.388;2022-10-28T03:00:30;12.32;;;2.20;;
43803;SDS011;29430;52.924;-2.388;2022-10-28T03:05:22;6.45;;;1.20;;
43803;SDS011;29430;52.924;-2.388;2022-10-28T03:10:13;7.03;;;1.42;;
43803;SDS011;29430;52.924;-2.388;2022-10-28T03:15:05;6.75;;;1.08;;
43803;SDS011;29430;52.924;-2.388;2022-10-28T03:19:57;11.70;;;1.25;;
43803;SDS011;29430;52.924;-2.388;2022-10-28T03:24:49;5.30;;;1.23;;
43803;SDS011;29430;52.924;-2.388;2022-10-28T03:29:41;8.43;;;2.42;;
43803;SDS011;29430;52.924;-2.388;2022-10-28T03:34:36;11.18;;;1.77;;
43803;SDS011;29430;52.924;-2.388;2022-10-28T03:39:28;8.02;;;0.90;;
43803;SDS011;29430;52.924;-2.388;2022-10-28T03:44:19;9.10;;;1.95;;
43803;SDS011;29430;52.924;-2.388;2022-10-28T03:49:11;7.55;;;1.40;;
43803;SDS011;29430;52.924;-2.388;2022-10-28T03:54:03;7.75;;;0.90;;
43803;SDS011;29430;52.924;-2.388;2022-10-28T03:58:54;8.27;;;1.10;;
43803;SDS011;29430;52.924;-2.388;2022-10-28T04:03:46;8.02;;;1.50;;
43803;SDS011;29430;52.924;-2.388;2022-10-28T04:08:38;6.35;;;1.23;;
43803;SDS011;29430;52.924;-2.388;2022-10-28T04:13:30;6.90;;;1.30;;
43803;SDS011;29430;52.924;-2.388;2022-10-28T04:18:21;9.27;;;1.55;;
43803;SDS011;29430;52.924;-2.388;2022-10-28T04:23:14;7.13;;;1.20;;
43803;SDS011;29430;52.924;-2.388;2022-10-28T04:28:08;12.20;;;1.10;;
43803;SDS011;29430;52.924;-2.388;2022-10-28T04:33:00;7.50;;;1.10;;
43803;SDS011;29430;52.924;-2.388;2022-10-28T04:37:51;5.20;;;0.95;;
43803;SDS011;29430;52.924;-2.388;2022-10-28T04:42:43;8.80;;;1.20;;
43803;SDS011;29430;52.924;-2.388;2022-10-28T04:47:35;8.18;;;1.02;;
43803;SDS011;29430;52.924;-2.388;2022-10-28T04:52:26;4.72;;;0.98;;
43803;SDS011;29430;52.924;-2.388;2022-10-28T04:57:18;7.25;;;1.33;;
43803;SDS011;29430;52.924;-2.388;2022-10-28T05:02:10;14.77;;;2.30;;
43803;SDS011;29430;52.924;-2.388;2022-10-28T05:07:02;10.23;;;2.53;;
43803;SDS011;29430;52.924;-2.388;2022-10-28T05:11:53;7.65;;;1.88;;
43803;SDS011;29430;52.924;-2.388;2022-10-28T05:16:45;11.90;;;1.88;;
43803;SDS011;29430;52.924;-2.388;2022-10-28T05:21:37;11.90;;;1.80;;
43803;SDS011;29430;52.924;-2.388;2022-10-28T05:26:28;8.75;;;1.95;;
43803;SDS011;29430;52.924;-2.388;2022-10-28T05:31:20;10.85;;;2.08;;
43803;SDS011;29430;52.924;-2.388;2022-10-28T05:36:12;6.65;;;1.75;;
43803;SDS011;29430;52.924;-2.388;2022-10-28T05:41:03;9.57;;;2.70;;
43803;SDS011;29430;52.924;-2.388;2022-10-28T05:45:56;9.52;;;2.35;;
43803;SDS011;29430;52.924;-2.388;2022-10-28T05:50:48;6.78;;;1.10;;
43803;SDS011;29430;52.924;-2.388;2022-10-28T05:55:40;8.63;;;1.08;;
43803;SDS011;29430;52.924;-2.388;2022-10-28T06:05:29;7.00;;;0.77;;
43803;SDS011;29430;52.924;-2.388;2022-10-28T06:10:21;7.53;;;0.90;;
43803;SDS011;29430;52.924;-2.388;2022-10-28T06:15:13;6.03;;;1.00;;
43803;SDS011;29430;52.924;-2.388;2022-10-28T06:20:05;8.77;;;0.82;;
43803;SDS011;29430;52.924;-2.388;2022-10-28T06:24:57;7.97;;;1.20;;
43803;SDS011;29430;52.924;-2.388;2022-10-28T06:29:48;4.85;;;0.80;;
43803;SDS011;29430;52.924;-2.388;2022-10-28T06:34:40;7.38;;;1.25;;
43803;SDS011;29430;52.924;-2.388;2022-10-28T06:39:32;6.60;;;0.70;;
43803;SDS011;29430;52.924;-2.388;2022-10-28T06:44:24;3.95;;;0.80;;
43803;SDS011;29430;52.924;-2.388;2022-10-28T06:49:16;6.45;;;1.05;;
43803;SDS011;29430;52.924;-2.388;2022-10-28T06:54:08;6.82;;;1.00;;
43803;SDS011;29430;52.924;-2.388;2022-10-28T06:58:59;8.10;;;1.02;;
43803;SDS011;29430;52.924;-2.388;2022-10-28T07:03:51;5.13;;;0.82;;
43803;SDS011;29430;52.924;-2.388;2022-10-28T07:08:43;5.20;;;0.98;;
43803;SDS011;29430;52.924;-2.388;2022-10-28T07:13:35;6.82;;;0.80;;
43803;SDS011;29430;52.924;-2.388;2022-10-28T07:18:27;3.70;;;0.60;;
43803;SDS011;29430;52.924;-2.388;2022-10-28T07:23:20;7.65;;;0.60;;
43803;SDS011;29430;52.924;-2.388;2022-10-28T07:28:11;1.58;;;0.25;;
43803;SDS011;29430;52.924;-2.388;2022-10-28T07:33:03;1.75;;;0.10;;
43803;SDS011;29430;52.924;-2.388;2022-10-28T07:37:56;1.42;;;0.20;;
43803;SDS011;29430;52.924;-2.388;2022-10-28T07:42:48;1.42;;;0.10;;
43803;SDS011;29430;52.924;-2.388;2022-10-28T07:47:41;1.92;;;0.15;;
43803;SDS011;29430;52.924;-2.388;2022-10-28T07:52:33;2.13;;;0.10;;
43803;SDS011;29430;52.924;-2.388;2022-10-28T07:57:26;0.75;;;0.10;;
43803;SDS011;29430;52.924;-2.388;2022-10-28T08:02:19;1.10;;;0.10;;
43803;SDS011;29430;52.924;-2.388;2022-10-28T08:07:13;2.88;;;0.20;;
43803;SDS011;29430;52.924;-2.388;2022-10-28T08:12:06;2.50;;;0.10;;
43803;SDS011;29430;52.924;-2.388;2022-10-28T08:16:59;2.65;;;0.10;;
43803;SDS011;29430;52.924;-2.388;2022-10-28T08:21:51;1.90;;;0.10;;
43803;SDS011;29430;52.924;-2.388;2022-10-28T08:26:43;1.48;;;0.08;;
43803;SDS011;29430;52.924;-2.388;2022-10-28T08:31:34;1.48;;;0.10;;
43803;SDS011;29430;52.924;-2.388;2022-10-28T08:36:26;0.95;;;0.00;;
43803;SDS011;29430;52.924;-2.388;2022-10-28T08:41:35;2.60;;;0.10;;
43803;SDS011;29430;52.924;-2.388;2022-10-28T08:51:29;3.28;;;0.00;;
43803;SDS011;29430;52.924;-2.388;2022-10-28T08:56:39;3.58;;;0.10;;
43803;SDS011;29430;52.924;-2.388;2022-10-28T09:06:34;1.90;;;0.10;;
43803;SDS011;29430;52.924;-2.388;2022-10-28T09:27:18;0.95;;;0.10;;
43803;SDS011;29430;52.924;-2.388;2022-10-28T09:37:30;0.35;;;0.00;;
43803;SDS011;29430;52.924;-2.388;2022-10-28T09:42:26;0.52;;;0.05;;
43803;SDS011;29430;52.924;-2.388;2022-10-28T09:47:29;2.15;;;0.10;;
43803;SDS011;29430;52.924;-2.388;2022-10-28T09:52:31;1.00;;;0.00;;
43803;SDS011;29430;52.924;-2.388;2022-10-28T09:57:29;0.85;;;0.00;;
43803;SDS011;29430;52.924;-2.388;2022-10-28T10:02:29;1.38;;;0.20;;
43803;SDS011;29430;52.924;-2.388;2022-10-28T10:07:36;1.30;;;0.00;;
43803;SDS011;29430;52.924;-2.388;2022-10-28T10:12:31;4.60;;;0.10;;
43803;SDS011;29430;52.924;-2.388;2022-10-28T10:17:32;3.25;;;0.20;;
43803;SDS011;29430;52.924;-2.388;2022-10-28T10:22:39;2.08;;;0.20;;
43803;SDS011;29430;52.924;-2.388;2022-10-28T10:27:32;2.20;;;0.07;;
43803;SDS011;29430;52.924;-2.388;2022-10-28T10:32:25;3.60;;;0.10;;
43803;SDS011;29430;52.924;-2.388;2022-10-28T10:37:20;2.63;;;0.10;;
43803;SDS011;29430;52.924;-2.388;2022-10-28T10:42:14;2.83;;;0.20;;
43803;SDS011;29430;52.924;-2.388;2022-10-28T10:52:05;1.45;;;0.10;;
43803;SDS011;29430;52.924;-2.388;2022-10-28T10:57:06;3.25;;;0.10;;
43803;SDS011;29430;52.924;-2.388;2022-10-28T11:01:59;1.98;;;0.20;;
43803;SDS011;29430;52.924;-2.388;2022-10-28T11:06:55;2.63;;;0.10;;
43803;SDS011;29430;52.924;-2.388;2022-10-28T11:11:48;3.53;;;0.20;;
43803;SDS011;29430;52.924;-2.388;2022-10-28T11:16:47;4.25;;;0.30;;
43803;SDS011;29430;52.924;-2.388;2022-10-28T11:21:46;2.88;;;0.20;;
43803;SDS011;29430;52.924;-2.388;2022-10-28T11:26:50;7.90;;;0.20;;
43803;SDS011;29430;52.924;-2.388;2022-10-28T11:32:06;3.63;;;0.20;;
43803;SDS011;29430;52.924;-2.388;2022-10-28T11:37:33;2.20;;;0.20;;
43803;SDS011;29430;52.924;-2.388;2022-10-28T12:14:21;2.45;;;0.20;;
43803;SDS011;29430;52.924;-2.388;2022-10-28T12:19:20;1.33;;;0.10;;
43803;SDS011;29430;52.924;-2.388;2022-10-28T12:24:18;2.80;;;0.10;;
43803;SDS011;29430;52.924;-2.388;2022-10-28T12:29:23;1.10;;;0.10;;
43803;SDS011;29430;52.924;-2.388;2022-10-28T12:34:31;6.88;;;0.40;;
43803;SDS011;29430;52.924;-2.388;2022-10-28T12:39:27;2.85;;;0.10;;
43803;SDS011;29430;52.924;-2.388;2022-10-28T12:44:25;3.03;;;0.20;;
43803;SDS011;29430;52.924;-2.388;2022-10-28T12:49:20;2.85;;;0.10;;
43803;SDS011;29430;52.924;-2.388;2022-10-28T12:59:40;1.33;;;0.10;;
43803;SDS011;29430;52.924;-2.388;2022-10-28T13:04:37;4.38;;;0.13;;
43803;SDS011;29430;52.924;-2.388;2022-10-28T13:09:36;1.20;;;0.10;;
43803;SDS011;29430;52.924;-2.388;2022-10-28T13:15:15;1.60;;;0.10;;
43803;SDS011;29430;52.924;-2.388;2022-10-28T13:30:16;3.35;;;0.43;;
43803;SDS011;29430;52.924;-2.388;2022-10-28T13:35:14;2.45;;;0.10;;
43803;SDS011;29430;52.924;-2.388;2022-10-28T13:40:21;2.88;;;0.13;;
43803;SDS011;29430;52.924;-2.388;2022-10-28T13:50:40;2.42;;;0.13;;
43803;SDS011;29430;52.924;-2.388;2022-10-28T13:55:41;5.85;;;0.20;;
43803;SDS011;29430;52.924;-2.388;2022-10-28T14:00:35;4.30;;;0.30;;
43803;SDS011;29430;52.924;-2.388;2022-10-28T14:10:29;3.47;;;0.20;;
43803;SDS011;29430;52.924;-2.388;2022-10-28T14:15:35;2.40;;;0.20;;
43803;SDS011;29430;52.924;-2.388;2022-10-28T14:30:32;2.75;;;0.32;;
43803;SDS011;29430;52.924;-2.388;2022-10-28T14:35:31;3.25;;;0.30;;
43803;SDS011;29430;52.924;-2.388;2022-10-28T14:51:00;4.95;;;0.25;;
43803;SDS011;29430;52.924;-2.388;2022-10-28T14:55:57;6.07;;;0.30;;
43803;SDS011;29430;52.924;-2.388;2022-10-28T15:05:54;2.25;;;0.20;;
43803;SDS011;29430;52.924;-2.388;2022-10-28T15:10:47;4.50;;;0.20;;
43803;SDS011;29430;52.924;-2.388;2022-10-28T15:15:49;4.53;;;0.20;;
43803;SDS011;29430;52.924;-2.388;2022-10-28T15:20:43;4.63;;;0.35;;
43803;SDS011;29430;52.924;-2.388;2022-10-28T15:25:34;6.95;;;0.60;;
43803;SDS011;29430;52.924;-2.388;2022-10-28T15:30:26;5.65;;;0.30;;
43803;SDS011;29430;52.924;-2.388;2022-10-28T15:40:20;2.67;;;0.20;;
43803;SDS011;29430;52.924;-2.388;2022-10-28T15:45:19;5.55;;;0.35;;
43803;SDS011;29430;52.924;-2.388;2022-10-28T16:10:23;4.60;;;0.30;;
43803;SDS011;29430;52.924;-2.388;2022-10-28T16:15:24;6.80;;;0.35;;
43803;SDS011;29430;52.924;-2.388;2022-10-28T16:20:18;5.53;;;0.40;;
43803;SDS011;29430;52.924;-2.388;2022-10-28T16:25:14;6.43;;;0.40;;
43803;SDS011;29430;52.924;-2.388;2022-10-28T16:30:08;4.07;;;0.50;;
43803;SDS011;29430;52.924;-2.388;2022-10-28T16:35:00;5.13;;;0.47;;
43803;SDS011;29430;52.924;-2.388;2022-10-28T16:39:53;3.15;;;0.38;;
43803;SDS011;29430;52.924;-2.388;2022-10-28T16:44:45;6.00;;;0.75;;
43803;SDS011;29430;52.924;-2.388;2022-10-28T16:49:37;4.82;;;0.40;;
43803;SDS011;29430;52.924;-2.388;2022-10-28T16:54:29;7.25;;;0.65;;
43803;SDS011;29430;52.924;-2.388;2022-10-28T16:59:20;5.05;;;0.60;;
43803;SDS011;29430;52.924;-2.388;2022-10-28T17:04:12;8.25;;;1.60;;
43803;SDS011;29430;52.924;-2.388;2022-10-28T17:09:04;4.43;;;0.70;;
43803;SDS011;29430;52.924;-2.388;2022-10-28T17:13:56;9.35;;;0.70;;
43803;SDS011;29430;52.924;-2.388;2022-10-28T17:18:48;6.57;;;0.75;;
43803;SDS011;29430;52.924;-2.388;2022-10-28T17:23:40;7.80;;;0.50;;
43803;SDS011;29430;52.924;-2.388;2022-10-28T17:28:31;6.45;;;0.50;;
43803;SDS011;29430;52.924;-2.388;2022-10-28T17:33:23;7.28;;;0.50;;
43803;SDS011;29430;52.924;-2.388;2022-10-28T17:38:15;7.43;;;0.50;;
43803;SDS011;29430;52.924;-2.388;2022-10-28T17:43:07;4.53;;;0.40;;
43803;SDS011;29430;52.924;-2.388;2022-10-28T17:47:58;6.90;;;0.50;;
43803;SDS011;29430;52.924;-2.388;2022-10-28T17:52:51;5.20;;;0.50;;
43803;SDS011;29430;52.924;-2.388;2022-10-28T17:57:43;6.93;;;0.70;;
43803;SDS011;29430;52.924;-2.388;2022-10-28T18:02:35;11.82;;;0.80;;
43803;SDS011;29430;52.924;-2.388;2022-10-28T18:07:27;10.18;;;0.90;;
43803;SDS011;29430;52.924;-2.388;2022-10-28T18:12:19;7.78;;;0.60;;
43803;SDS011;29430;52.924;-2.388;2022-10-28T18:17:11;3.72;;;0.50;;
43803;SDS011;29430;52.924;-2.388;2022-10-28T18:22:04;4.03;;;0.40;;
43803;SDS011;29430;52.924;-2.388;2022-10-28T18:26:56;8.15;;;0.55;;
43803;SDS011;29430;52.924;-2.388;2022-10-28T18:31:48;4.80;;;0.70;;
43803;SDS011;29430;52.924;-2.388;2022-10-28T18:36:40;6.45;;;0.50;;
43803;SDS011;29430;52.924;-2.388;2022-10-28T18:41:33;4.72;;;0.40;;
43803;SDS011;29430;52.924;-2.388;2022-10-28T18:46:28;6.78;;;0.40;;
43803;SDS011;29430;52.924;-2.388;2022-10-28T18:51:22;5.03;;;0.50;;
43803;SDS011;29430;52.924;-2.388;2022-10-28T18:56:15;6.78;;;0.70;;
43803;SDS011;29430;52.924;-2.388;2022-10-28T19:01:12;6.03;;;0.40;;
43803;SDS011;29430;52.924;-2.388;2022-10-28T19:06:07;5.65;;;0.43;;
43803;SDS011;29430;52.924;-2.388;2022-10-28T19:11:04;8.48;;;0.75;;
43803;SDS011;29430;52.924;-2.388;2022-10-28T19:15:57;6.57;;;0.70;;
43803;SDS011;29430;52.924;-2.388;2022-10-28T19:20:49;9.05;;;1.33;;
43803;SDS011;29430;52.924;-2.388;2022-10-28T19:25:42;9.52;;;0.70;;
43803;SDS011;29430;52.924;-2.388;2022-10-28T19:30:34;5.47;;;0.50;;
43803;SDS011;29430;52.924;-2.388;2022-10-28T19:35:31;4.57;;;0.93;;
43803;SDS011;29430;52.924;-2.388;2022-10-28T19:40:23;5.95;;;0.60;;
43803;SDS011;29430;52.924;-2.388;2022-10-28T19:45:15;8.45;;;1.05;;
43803;SDS011;29430;52.924;-2.388;2022-10-28T19:50:07;3.30;;;0.60;;
43803;SDS011;29430;52.924;-2.388;2022-10-28T19:54:59;6.72;;;0.82;;
43803;SDS011;29430;52.924;-2.388;2022-10-28T19:59:50;4.85;;;0.50;;
43803;SDS011;29430;52.924;-2.388;2022-10-28T20:04:42;3.15;;;0.40;;
43803;SDS011;29430;52.924;-2.388;2022-10-28T20:09:35;4.80;;;0.40;;
43803;SDS011;29430;52.924;-2.388;2022-10-28T20:14:26;4.90;;;0.50;;
43803;SDS011;29430;52.924;-2.388;2022-10-28T20:19:18;5.38;;;0.90;;
43803;SDS011;29430;52.924;-2.388;2022-10-28T20:24:10;4.25;;;0.43;;
43803;SDS011;29430;52.924;-2.388;2022-10-28T20:29:01;7.63;;;1.90;;
43803;SDS011;29430;52.924;-2.388;2022-10-28T20:33:54;8.35;;;0.75;;
43803;SDS011;29430;52.924;-2.388;2022-10-28T20:38:55;10.25;;;0.73;;
43803;SDS011;29430;52.924;-2.388;2022-10-28T20:43:49;4.32;;;0.40;;
43803;SDS011;29430;52.924;-2.388;2022-10-28T20:48:41;8.57;;;0.60;;
43803;SDS011;29430;52.924;-2.388;2022-10-28T20:53:33;5.03;;;0.60;;
43803;SDS011;29430;52.924;-2.388;2022-10-28T20:58:27;4.75;;;0.52;;
43803;SDS011;29430;52.924;-2.388;2022-10-28T21:03:20;5.63;;;0.65;;
43803;SDS011;29430;52.924;-2.388;2022-10-28T21:08:12;6.07;;;0.50;;
43803;SDS011;29430;52.924;-2.388;2022-10-28T21:13:04;6.47;;;0.50;;
43803;SDS011;29430;52.924;-2.388;2022-10-28T21:17:56;6.47;;;0.60;;
43803;SDS011;29430;52.924;-2.388;2022-10-28T21:22:48;2.35;;;0.55;;
43803;SDS011;29430;52.924;-2.388;2022-10-28T21:27:40;5.20;;;0.50;;
43803;SDS011;29430;52.924;-2.388;2022-10-28T21:32:32;8.23;;;0.60;;
43803;SDS011;29430;52.924;-2.388;2022-10-28T21:37:27;7.57;;;0.70;;
43803;SDS011;29430;52.924;-2.388;2022-10-28T21:42:19;5.85;;;1.05;;
43803;SDS011;29430;52.924;-2.388;2022-10-28T21:47:10;7.70;;;0.90;;
43803;SDS011;29430;52.924;-2.388;2022-10-28T21:52:02;5.97;;;0.80;;
43803;SDS011;29430;52.924;-2.388;2022-10-28T21:56:54;7.15;;;0.88;;
43803;SDS011;29430;52.924;-2.388;2022-10-28T22:01:46;9.20;;;0.98;;
43803;SDS011;29430;52.924;-2.388;2022-10-28T22:06:38;6.40;;;0.50;;
43803;SDS011;29430;52.924;-2.388;2022-10-28T22:11:30;8.00;;;0.50;;
43803;SDS011;29430;52.924;-2.388;2022-10-28T22:16:21;7.22;;;0.77;;
43803;SDS011;29430;52.924;-2.388;2022-10-28T22:21:16;10.15;;;0.77;;
43803;SDS011;29430;52.924;-2.388;2022-10-28T22:26:18;13.30;;;2.25;;
43803;SDS011;29430;52.924;-2.388;2022-10-28T22:31:13;10.53;;;1.20;;
43803;SDS011;29430;52.924;-2.388;2022-10-28T22:36:07;10.77;;;1.05;;
43803;SDS011;29430;52.924;-2.388;2022-10-28T22:45:58;11.57;;;1.00;;
43803;SDS011;29430;52.924;-2.388;2022-10-28T22:50:50;5.25;;;0.80;;
43803;SDS011;29430;52.924;-2.388;2022-10-28T22:55:42;6.70;;;0.90;;
43803;SDS011;29430;52.924;-2.388;2022-10-28T23:00:34;10.27;;;0.90;;
43803;SDS011;29430;52.924;-2.388;2022-10-28T23:05:26;10.48;;;0.88;;
43803;SDS011;29430;52.924;-2.388;2022-10-28T23:10:17;5.43;;;0.60;;
43803;SDS011;29430;52.924;-2.388;2022-10-28T23:15:09;9.30;;;1.17;;
43803;SDS011;29430;52.924;-2.388;2022-10-28T23:20:01;11.95;;;0.80;;
43803;SDS011;29430;52.924;-2.388;2022-10-28T23:24:54;8.82;;;1.00;;
43803;SDS011;29430;52.924;-2.388;2022-10-28T23:29:45;4.78;;;0.80;;
43803;SDS011;29430;52.924;-2.388;2022-10-28T23:34:37;5.78;;;0.90;;
43803;SDS011;29430;52.924;-2.388;2022-10-28T23:39:29;12.00;;;1.13;;
43803;SDS011;29430;52.924;-2.388;2022-10-28T23:44:20;8.35;;;0.90;;
43803;SDS011;29430;52.924;-2.388;2022-10-28T23:49:12;13.85;;;0.98;;
43803;SDS011;29430;52.924;-2.388;2022-10-28T23:54:04;8.15;;;1.23;;
43803;SDS011;29430;52.924;-2.388;2022-10-28T23:58:55;13.00;;;0.70;;
